Capt. Ted — WDD6210 — position and weather

sailwx.info

Track history (hours):
 
Tides and Currents Weather Stations Pressure Air Temp Water Temp Dewpoint Dewpoint Depression Visibility Wind Speed Wind Dir Waves Ship Positions

Capt. Ted

Owner: Salisbury Towing Corporation, Havre de Grace, MD. More information available from US FCC via Universal Licensing System and Coast Guard Vessel Documentation Center.

Last reported at 2014-Oct-29 18:31 UTC. Time now 2014-Oct-30 14:35 UTC.
Position N 38°07' W 076°15'.

Length 32 m; draft 2.8 m.

Type: Tug. MMSI: 367169710.

Date/timePositionNaut miles runAvg speedWind from/ knotsBaromVisibWave heightAir tempDewpointWater temp
2014-Oct-29 18:31N 38°07' W 076°15'64 7.1
2014-Oct-29 09:31N 39°10' W 076°26'7 6.8
2014-Oct-29 08:33N 39°14' W 076°33'3 2.8
2014-Oct-29 07:33N 39°15' W 076°36'1 0.8
2014-Oct-29 06:34N 39°15' W 076°36'3 3.4
2014-Oct-29 05:33N 39°13' W 076°32'5 5.0
2014-Oct-29 04:34N 39°11' W 076°26'4 3.9
2014-Oct-29 03:30N 39°13' W 076°22'17 0.6
2014-Oct-28 01:33N 39°23' W 076°05'7 6.9
2014-Oct-28 00:29N 39°19' W 076°13'8 6.1
2014-Oct-27 23:10N 39°14' W 076°20'4 5.8
2014-Oct-27 22:33N 39°12' W 076°24'5 4.9
2014-Oct-27 21:33N 39°12' W 076°31'5 4.9
2014-Oct-27 20:33N 39°15' W 076°35'1 1.0
2014-Oct-27 19:33N 39°15' W 076°36'0 0.0
2014-Oct-27 18:33N 39°15' W 076°36'0 0.0
2014-Oct-27 17:34N 39°15' W 076°36'0 0.0
2014-Oct-27 16:34N 39°15' W 076°36'1 0.5
2014-Oct-27 15:33N 39°15' W 076°36'1 0.5
2014-Oct-27 14:33N 39°15' W 076°36'4 3.5
2014-Oct-27 13:33N 39°13' W 076°32'6 6.2
2014-Oct-27 12:33N 39°10' W 076°25'7 6.6
2014-Oct-27 11:33N 39°03' W 076°23'6 6.5
2014-Oct-27 10:33N 38°57' W 076°24'10 0.2
2014-Oct-25 08:19N 39°06' W 076°20'7 7.6
2014-Oct-25 07:28N 39°00' W 076°23'  
2014-Oct-21 22:33N 38°60' W 076°23'6 5.8
2014-Oct-21 21:26N 39°06' W 076°21'6 0.4
2014-Oct-21 06:33N 39°12' W 076°24'6 6.5
2014-Oct-21 05:33N 39°14' W 076°32'0 0.1
2014-Oct-21 04:33N 39°14' W 076°32'6 5.9
2014-Oct-21 03:33N 39°11' W 076°26'  
Track history (hours):
 
Tides and Currents Weather Stations Pressure Air Temp Water Temp Dewpoint Dewpoint Depression Visibility Wind Speed Wind Dir Waves Ship Positions

Capt. Ted

Owner: Salisbury Towing Corporation, Havre de Grace, MD. More information available from US FCC via Universal Licensing System and Coast Guard Vessel Documentation Center.

Last reported at 2014-Oct-29 18:31 UTC. Time now 2014-Oct-30 14:35 UTC.
Position N 38°07' W 076°15'.

Length 32 m; draft 2.8 m.

Type: Tug. MMSI: 367169710.

Date/timePositionNaut miles runAvg speedWind from/ knotsBaromVisibWave heightAir tempDewpointWater temp
2014-Oct-29 18:31N 38°07' W 076°15'64 7.1
2014-Oct-29 09:31N 39°10' W 076°26'7 6.8
2014-Oct-29 08:33N 39°14' W 076°33'3 2.8
2014-Oct-29 07:33N 39°15' W 076°36'1 0.8
2014-Oct-29 06:34N 39°15' W 076°36'3 3.4
2014-Oct-29 05:33N 39°13' W 076°32'5 5.0
2014-Oct-29 04:34N 39°11' W 076°26'4 3.9
2014-Oct-29 03:30N 39°13' W 076°22'17 0.6
2014-Oct-28 01:33N 39°23' W 076°05'7 6.9
2014-Oct-28 00:29N 39°19' W 076°13'8 6.1
2014-Oct-27 23:10N 39°14' W 076°20'4 5.8
2014-Oct-27 22:33N 39°12' W 076°24'5 4.9
2014-Oct-27 21:33N 39°12' W 076°31'5 4.9
2014-Oct-27 20:33N 39°15' W 076°35'1 1.0
2014-Oct-27 19:33N 39°15' W 076°36'0 0.0
2014-Oct-27 18:33N 39°15' W 076°36'0 0.0
2014-Oct-27 17:34N 39°15' W 076°36'0 0.0
2014-Oct-27 16:34N 39°15' W 076°36'1 0.5
2014-Oct-27 15:33N 39°15' W 076°36'1 0.5
2014-Oct-27 14:33N 39°15' W 076°36'4 3.5
2014-Oct-27 13:33N 39°13' W 076°32'6 6.2
2014-Oct-27 12:33N 39°10' W 076°25'7 6.6
2014-Oct-27 11:33N 39°03' W 076°23'6 6.5
2014-Oct-27 10:33N 38°57' W 076°24'10 0.2
2014-Oct-25 08:19N 39°06' W 076°20'7 7.6
2014-Oct-25 07:28N 39°00' W 076°23'  
2014-Oct-21 22:33N 38°60' W 076°23'6 5.8
2014-Oct-21 21:26N 39°06' W 076°21'6 0.4
2014-Oct-21 06:33N 39°12' W 076°24'6 6.5
2014-Oct-21 05:33N 39°14' W 076°32'0 0.1
2014-Oct-21 04:33N 39°14' W 076°32'6 5.9
2014-Oct-21 03:33N 39°11' W 076°26'  

Dump ship's entire track history